DLH409 KEWR-EDDL
Flight info
| Callsign | DLH409 |
|---|---|
| Flight time | N/A |
| Altitude | 35000 |
| Route | MERIT DCT HFD DCT PUT DCT BOS DCT BRADD N175G PORTI/M082F370 DCT 47N050W 49N040W 51N030W 52N020W DCT MALOT DCT GISTI/N0465F370 DCT LIFFY UL975 WAL M16 DOLAS L603 LAMSO DCT EVELI DCT PAM P62 TEBRO |
| Aircraft | A346/H-SDE2E3FGHIJ3J4J5M1RWXY/LB1D1 |
Departure
| Time | 2026-04-25 10:38 |
|---|---|
| Airport | Newark Liberty International Airport (KEWR) |
Arrival
| Time | N/A |
|---|---|
| Airport | Düsseldorf Airport (EDDL) |
| Time | Latitude | Longitude | Altitude | Speed | Heading |
|---|---|---|---|---|---|
| 2026-04-25 10:37 | 40.73026 | -74.13874 | 1684 ft | 183 kts | 44° |
| 2026-04-25 10:38 | 40.74020 | -74.12776 | 2080 ft | 189 kts | 45° |
| 2026-04-25 10:38 | 40.75033 | -74.11640 | 2443 ft | 193 kts | 46° |
| 2026-04-25 10:38 | 40.76073 | -74.10471 | 2822 ft | 199 kts | 42° |
| 2026-04-25 10:39 | 40.78750 | -74.08615 | 3593 ft | 217 kts | 28° |
| 2026-04-25 10:39 | 40.80150 | -74.07768 | 3982 ft | 225 kts | 27° |
| 2026-04-25 10:39 | 40.81631 | -74.06812 | 4285 ft | 240 kts | 36° |
| 2026-04-25 10:39 | 40.82859 | -74.05253 | 4592 ft | 253 kts | 54° |
| 2026-04-25 10:40 | 40.83950 | -74.03341 | 4956 ft | 268 kts | 56° |
| 2026-04-25 10:40 | 40.85072 | -74.01322 | 5494 ft | 275 kts | 53° |
| 2026-04-25 10:40 | 40.86234 | -73.99287 | 6150 ft | 280 kts | 50° |
| 2026-04-25 10:40 | 40.87031 | -73.97930 | 6589 ft | 283 kts | 49° |
| 2026-04-25 10:41 | 40.88685 | -73.95186 | 7454 ft | 287 kts | 47° |
| 2026-04-25 10:41 | 40.89943 | -73.93128 | 8209 ft | 288 kts | 46° |
| 2026-04-25 10:41 | 40.91209 | -73.91062 | 8993 ft | 288 kts | 45° |
| 2026-04-25 10:41 | 40.92474 | -73.89001 | 9709 ft | 289 kts | 44° |
| 2026-04-25 10:42 | 40.93752 | -73.86926 | 10367 ft | 292 kts | 44° |
| 2026-04-25 10:42 | 40.95063 | -73.84807 | 10736 ft | 305 kts | 44° |
| 2026-04-25 10:42 | 40.96442 | -73.82584 | 11010 ft | 320 kts | 44° |
| 2026-04-25 10:42 | 40.97862 | -73.80286 | 11273 ft | 335 kts | 45° |
| 2026-04-25 10:43 | 40.99369 | -73.77839 | 11550 ft | 350 kts | 45° |
| 2026-04-25 10:43 | 41.00947 | -73.75271 | 11827 ft | 365 kts | 45° |
| 2026-04-25 10:43 | 41.02580 | -73.72607 | 12101 ft | 380 kts | 45° |
| 2026-04-25 10:43 | 41.04267 | -73.69847 | 12514 ft | 389 kts | 45° |
| 2026-04-25 10:44 | 41.05980 | -73.67037 | 13116 ft | 392 kts | 45° |
| 2026-04-25 10:44 | 41.07702 | -73.64206 | 13730 ft | 396 kts | 45° |
| 2026-04-25 10:44 | 41.09442 | -73.61343 | 14283 ft | 400 kts | 45° |
| 2026-04-25 10:44 | 41.11200 | -73.58455 | 14876 ft | 403 kts | 44° |
| 2026-04-25 10:45 | 41.12965 | -73.55556 | 15479 ft | 405 kts | 44° |
| 2026-04-25 10:45 | 41.14740 | -73.52637 | 16065 ft | 407 kts | 44° |
| 2026-04-25 10:45 | 41.16527 | -73.49697 | 16665 ft | 410 kts | 44° |
| 2026-04-25 10:45 | 41.18323 | -73.46739 | 17264 ft | 412 kts | 44° |
| 2026-04-25 10:46 | 41.20128 | -73.43763 | 17884 ft | 415 kts | 44° |
| 2026-04-25 10:46 | 41.21941 | -73.40767 | 18463 ft | 417 kts | 43° |
| 2026-04-25 10:46 | 41.23766 | -73.37752 | 18952 ft | 419 kts | 43° |
| 2026-04-25 10:46 | 41.25599 | -73.34723 | 19438 ft | 422 kts | 43° |
| 2026-04-25 10:47 | 41.27447 | -73.31665 | 19912 ft | 425 kts | 43° |
| 2026-04-25 10:47 | 41.29308 | -73.28580 | 20393 ft | 428 kts | 43° |
| 2026-04-25 10:47 | 41.31179 | -73.25472 | 20904 ft | 430 kts | 43° |
| 2026-04-25 10:47 | 41.33032 | -73.22393 | 21361 ft | 433 kts | 42° |
| 2026-04-25 10:48 | 41.34923 | -73.19253 | 21800 ft | 436 kts | 42° |
| 2026-04-25 10:48 | 41.36810 | -73.16066 | 22264 ft | 441 kts | 44° |
| 2026-04-25 10:48 | 41.38604 | -73.12703 | 22725 ft | 448 kts | 47° |
| 2026-04-25 10:48 | 41.40279 | -73.09154 | 23173 ft | 454 kts | 50° |
| 2026-04-25 10:49 | 41.41902 | -73.05514 | 23603 ft | 458 kts | 50° |
| 2026-04-25 10:49 | 41.42997 | -73.03030 | 23853 ft | 461 kts | 50° |
| 2026-04-25 10:49 | 41.44621 | -72.99334 | 24196 ft | 464 kts | 50° |
| 2026-04-25 10:49 | 41.46257 | -72.95610 | 24564 ft | 466 kts | 50° |
| 2026-04-25 10:50 | 41.47897 | -72.91864 | 24958 ft | 468 kts | 50° |
| 2026-04-25 10:50 | 41.49544 | -72.88109 | 25350 ft | 469 kts | 49° |
| 2026-04-25 10:50 | 41.51199 | -72.84344 | 25709 ft | 472 kts | 49° |
| 2026-04-25 10:50 | 41.52868 | -72.80548 | 26065 ft | 474 kts | 49° |
| 2026-04-25 10:51 | 41.54538 | -72.76742 | 26390 ft | 477 kts | 49° |
| 2026-04-25 10:51 | 41.56200 | -72.72949 | 26716 ft | 479 kts | 49° |
| 2026-04-25 10:51 | 41.57884 | -72.69095 | 27050 ft | 481 kts | 50° |
| 2026-04-25 10:51 | 41.59577 | -72.65216 | 27387 ft | 484 kts | 50° |
| 2026-04-25 10:52 | 41.61279 | -72.61308 | 27711 ft | 486 kts | 50° |
| 2026-04-25 10:52 | 41.62983 | -72.57387 | 28090 ft | 489 kts | 49° |
| 2026-04-25 10:52 | 41.64692 | -72.53466 | 28559 ft | 486 kts | 49° |
| 2026-04-25 10:52 | 41.66429 | -72.49590 | 29085 ft | 483 kts | 48° |
| 2026-04-25 10:53 | 41.68168 | -72.45750 | 29602 ft | 482 kts | 47° |
| 2026-04-25 10:53 | 41.69905 | -72.41918 | 30066 ft | 481 kts | 47° |
| 2026-04-25 10:53 | 41.71640 | -72.38084 | 30445 ft | 480 kts | 47° |
| 2026-04-25 10:53 | 41.73369 | -72.34251 | 30834 ft | 479 kts | 47° |
| 2026-04-25 10:54 | 41.75088 | -72.30425 | 31235 ft | 478 kts | 47° |
| 2026-04-25 10:54 | 41.76221 | -72.27900 | 31506 ft | 477 kts | 47° |
| 2026-04-25 10:54 | 41.78497 | -72.22809 | 32083 ft | 474 kts | 47° |
| 2026-04-25 10:54 | 41.80188 | -72.19019 | 32536 ft | 471 kts | 46° |
| 2026-04-25 10:55 | 41.81870 | -72.15251 | 32976 ft | 469 kts | 46° |
| 2026-04-25 10:55 | 41.83541 | -72.11504 | 33380 ft | 467 kts | 46° |
| 2026-04-25 10:55 | 41.85210 | -72.07763 | 33716 ft | 467 kts | 46° |
| 2026-04-25 10:55 | 41.86879 | -72.04019 | 33986 ft | 467 kts | 46° |
| 2026-04-25 10:56 | 41.88549 | -72.00267 | 34237 ft | 468 kts | 46° |
| 2026-04-25 10:56 | 41.90222 | -71.96504 | 34433 ft | 469 kts | 46° |
| 2026-04-25 10:56 | 41.91892 | -71.92736 | 34663 ft | 470 kts | 47° |
| 2026-04-25 10:56 | 41.93541 | -71.89005 | 34929 ft | 470 kts | 47° |
| 2026-04-25 10:57 | 41.95209 | -71.85226 | 35096 ft | 470 kts | 47° |
| 2026-04-25 10:57 | 41.98662 | -71.77807 | 35121 ft | 466 kts | 44° |
| 2026-04-25 10:58 | 42.02180 | -71.70488 | 35119 ft | 466 kts | 44° |
| 2026-04-25 10:58 | 42.05687 | -71.63137 | 35117 ft | 467 kts | 45° |
| 2026-04-25 10:59 | 42.09184 | -71.55760 | 35106 ft | 467 kts | 45° |
| 2026-04-25 10:59 | 42.12679 | -71.48363 | 35131 ft | 468 kts | 45° |
| 2026-04-25 11:00 | 42.16164 | -71.40955 | 35124 ft | 468 kts | 45° |
| 2026-04-25 11:00 | 42.19648 | -71.33535 | 35132 ft | 468 kts | 45° |
| 2026-04-25 11:01 | 42.23127 | -71.26105 | 35137 ft | 468 kts | 45° |
| 2026-04-25 11:01 | 42.26603 | -71.18663 | 35161 ft | 468 kts | 45° |
| 2026-04-25 11:02 | 42.30076 | -71.11204 | 35143 ft | 469 kts | 45° |
| 2026-04-25 11:02 | 42.33445 | -71.03599 | 35144 ft | 476 kts | 50° |
| 2026-04-25 11:03 | 42.36287 | -70.95396 | 35143 ft | 487 kts | 56° |
| 2026-04-25 11:03 | 42.38494 | -70.86605 | 35173 ft | 496 kts | 62° |
| 2026-04-25 11:04 | 42.40431 | -70.77618 | 35152 ft | 497 kts | 62° |
| 2026-04-25 11:04 | 42.42358 | -70.68619 | 35131 ft | 497 kts | 62° |
| 2026-04-25 11:05 | 42.44276 | -70.59675 | 35127 ft | 497 kts | 62° |
| 2026-04-25 11:05 | 42.46199 | -70.50674 | 35143 ft | 497 kts | 61° |
| 2026-04-25 11:06 | 42.48116 | -70.41674 | 35129 ft | 496 kts | 61° |
| 2026-04-25 11:06 | 42.50033 | -70.32668 | 35126 ft | 496 kts | 61° |
| 2026-04-25 11:07 | 42.51940 | -70.23663 | 35125 ft | 497 kts | 61° |
| 2026-04-25 11:07 | 42.53844 | -70.14653 | 35145 ft | 497 kts | 62° |
| 2026-04-25 11:08 | 42.55736 | -70.05625 | 35124 ft | 497 kts | 62° |
| 2026-04-25 11:08 | 42.57619 | -69.96596 | 35124 ft | 497 kts | 62° |
| 2026-04-25 11:09 | 42.59498 | -69.87549 | 35110 ft | 497 kts | 62° |
| 2026-04-25 11:09 | 42.61379 | -69.78510 | 35125 ft | 497 kts | 64° |
| 2026-04-25 11:10 | 42.63240 | -69.69441 | 35118 ft | 498 kts | 64° |
| 2026-04-25 11:10 | 42.65094 | -69.60367 | 35111 ft | 498 kts | 64° |
| 2026-04-25 11:11 | 42.66944 | -69.51298 | 35141 ft | 498 kts | 64° |
| 2026-04-25 11:11 | 42.68793 | -69.42224 | 35115 ft | 497 kts | 64° |
| 2026-04-25 11:12 | 42.70628 | -69.33143 | 35105 ft | 497 kts | 64° |
| 2026-04-25 11:12 | 42.72459 | -69.24060 | 35110 ft | 497 kts | 65° |
| 2026-04-25 11:13 | 42.74269 | -69.15036 | 35119 ft | 497 kts | 65° |
| 2026-04-25 11:13 | 42.76085 | -69.05941 | 35105 ft | 497 kts | 65° |
| 2026-04-25 11:14 | 42.77890 | -68.96858 | 35098 ft | 497 kts | 65° |
| 2026-04-25 11:14 | 42.79689 | -68.87765 | 35098 ft | 497 kts | 65° |
| 2026-04-25 11:15 | 42.81486 | -68.78657 | 35104 ft | 496 kts | 65° |
| 2026-04-25 11:15 | 42.83265 | -68.69577 | 35087 ft | 496 kts | 65° |
| 2026-04-25 11:16 | 42.85914 | -68.55984 | 35095 ft | 496 kts | 65° |
| 2026-04-25 11:16 | 42.87683 | -68.46887 | 35102 ft | 495 kts | 66° |
| 2026-04-25 11:17 | 42.89433 | -68.37803 | 35087 ft | 494 kts | 66° |
| 2026-04-25 11:17 | 42.91177 | -68.28726 | 35086 ft | 494 kts | 66° |
| 2026-04-25 11:18 | 42.92909 | -68.19657 | 35083 ft | 494 kts | 67° |
| 2026-04-25 11:18 | 42.94640 | -68.10579 | 35101 ft | 493 kts | 68° |
| 2026-04-25 11:19 | 42.96356 | -68.01512 | 35083 ft | 492 kts | 68° |